sensor_id;sensor_type;location;lat;lon;timestamp;temperature;humidity
55331;DHT22;58851;42.984;20.336;2023-07-16T00:01:44;564.10;128.00
55331;DHT22;58851;42.984;20.336;2023-07-16T00:04:10;564.10;128.00
55331;DHT22;58851;42.984;20.336;2023-07-16T00:06:36;564.00;128.00
55331;DHT22;58851;42.984;20.336;2023-07-16T00:09:01;564.00;128.00
55331;DHT22;58851;42.984;20.336;2023-07-16T00:11:28;563.90;128.00
55331;DHT22;58851;42.984;20.336;2023-07-16T00:13:54;563.80;128.00
55331;DHT22;58851;42.984;20.336;2023-07-16T00:16:20;563.80;128.00
55331;DHT22;58851;42.984;20.336;2023-07-16T00:18:46;563.80;128.00
55331;DHT22;58851;42.984;20.336;2023-07-16T00:21:12;563.70;128.00
55331;DHT22;58851;42.984;20.336;2023-07-16T00:23:38;563.80;128.00
55331;DHT22;58851;42.984;20.336;2023-07-16T00:26:04;563.70;128.00
55331;DHT22;58851;42.984;20.336;2023-07-16T00:28:30;563.80;128.00
55331;DHT22;58851;42.984;20.336;2023-07-16T00:30:56;563.60;128.00
55331;DHT22;58851;42.984;20.336;2023-07-16T00:33:21;563.30;128.00
55331;DHT22;58851;42.984;20.336;2023-07-16T00:35:48;563.20;128.00
55331;DHT22;58851;42.984;20.336;2023-07-16T00:38:20;538.40;128.00
55331;DHT22;58851;42.984;20.336;2023-07-16T00:40:46;538.40;128.00
55331;DHT22;58851;42.984;20.336;2023-07-16T00:43:12;538.40;128.00
55331;DHT22;58851;42.984;20.336;2023-07-16T00:45:39;538.30;128.00
55331;DHT22;58851;42.984;20.336;2023-07-16T00:48:06;538.30;128.00
55331;DHT22;58851;42.984;20.336;2023-07-16T00:50:33;538.30;128.00
55331;DHT22;58851;42.984;20.336;2023-07-16T00:53:03;538.30;128.00
55331;DHT22;58851;42.984;20.336;2023-07-16T00:55:32;538.30;128.00
55331;DHT22;58851;42.984;20.336;2023-07-16T00:58:01;538.10;128.00
55331;DHT22;58851;42.984;20.336;2023-07-16T01:00:41;538.10;128.00
55331;DHT22;58851;42.984;20.336;2023-07-16T01:03:09;538.20;128.00
55331;DHT22;58851;42.984;20.336;2023-07-16T01:08:41;538.30;128.00
55331;DHT22;58851;42.984;20.336;2023-07-16T01:11:07;538.30;128.00
55331;DHT22;58851;42.984;20.336;2023-07-16T01:13:34;538.20;128.00
55331;DHT22;58851;42.984;20.336;2023-07-16T01:16:00;538.30;128.00
55331;DHT22;58851;42.984;20.336;2023-07-16T01:18:26;538.20;128.00
55331;DHT22;58851;42.984;20.336;2023-07-16T01:20:52;538.20;128.00
55331;DHT22;58851;42.984;20.336;2023-07-16T01:23:26;538.20;128.00
55331;DHT22;58851;42.984;20.336;2023-07-16T01:29:09;538.30;128.00
55331;DHT22;58851;42.984;20.336;2023-07-16T01:31:37;538.20;128.00
55331;DHT22;58851;42.984;20.336;2023-07-16T01:34:05;538.10;128.00
55331;DHT22;58851;42.984;20.336;2023-07-16T01:36:32;538.20;128.00
55331;DHT22;58851;42.984;20.336;2023-07-16T01:38:59;538.20;128.00
55331;DHT22;58851;42.984;20.336;2023-07-16T01:41:25;538.20;128.00
55331;DHT22;58851;42.984;20.336;2023-07-16T01:43:50;538.30;128.00
55331;DHT22;58851;42.984;20.336;2023-07-16T01:46:17;538.20;128.00
55331;DHT22;58851;42.984;20.336;2023-07-16T01:48:44;538.20;128.00
55331;DHT22;58851;42.984;20.336;2023-07-16T01:51:10;538.10;128.00
55331;DHT22;58851;42.984;20.336;2023-07-16T01:53:40;538.10;128.00
55331;DHT22;58851;42.984;20.336;2023-07-16T01:56:05;538.20;128.00
55331;DHT22;58851;42.984;20.336;2023-07-16T01:58:31;538.20;128.00
55331;DHT22;58851;42.984;20.336;2023-07-16T02:00:57;538.20;128.00
55331;DHT22;58851;42.984;20.336;2023-07-16T02:03:23;538.20;128.00
55331;DHT22;58851;42.984;20.336;2023-07-16T02:05:49;538.30;128.00
55331;DHT22;58851;42.984;20.336;2023-07-16T02:08:14;538.30;128.00
55331;DHT22;58851;42.984;20.336;2023-07-16T02:10:41;538.20;128.00
55331;DHT22;58851;42.984;20.336;2023-07-16T02:13:07;538.30;128.00
55331;DHT22;58851;42.984;20.336;2023-07-16T02:15:33;538.30;128.00
55331;DHT22;58851;42.984;20.336;2023-07-16T02:17:58;538.10;128.00
55331;DHT22;58851;42.984;20.336;2023-07-16T02:20:24;538.10;128.00
55331;DHT22;58851;42.984;20.336;2023-07-16T02:22:50;538.10;128.00
55331;DHT22;58851;42.984;20.336;2023-07-16T02:25:16;538.10;128.00
55331;DHT22;58851;42.984;20.336;2023-07-16T02:27:41;538.00;128.00
55331;DHT22;58851;42.984;20.336;2023-07-16T02:30:07;537.60;128.00
55331;DHT22;58851;42.984;20.336;2023-07-16T02:32:34;537.60;128.00
55331;DHT22;58851;42.984;20.336;2023-07-16T02:35:00;537.60;128.00
55331;DHT22;58851;42.984;20.336;2023-07-16T02:37:26;512.90;128.00
55331;DHT22;58851;42.984;20.336;2023-07-16T02:39:52;512.90;128.00
55331;DHT22;58851;42.984;20.336;2023-07-16T02:42:18;512.90;128.00
55331;DHT22;58851;42.984;20.336;2023-07-16T02:44:43;512.70;128.00
55331;DHT22;58851;42.984;20.336;2023-07-16T02:47:13;512.70;128.00
55331;DHT22;58851;42.984;20.336;2023-07-16T02:49:39;512.70;128.00
55331;DHT22;58851;42.984;20.336;2023-07-16T02:52:06;512.70;128.00
55331;DHT22;58851;42.984;20.336;2023-07-16T02:54:32;512.90;128.00
55331;DHT22;58851;42.984;20.336;2023-07-16T02:56:58;537.60;128.00
55331;DHT22;58851;42.984;20.336;2023-07-16T02:59:24;537.60;128.00
55331;DHT22;58851;42.984;20.336;2023-07-16T03:01:51;537.60;128.00
55331;DHT22;58851;42.984;20.336;2023-07-16T03:04:17;537.70;128.00
55331;DHT22;58851;42.984;20.336;2023-07-16T03:06:42;537.60;128.00
55331;DHT22;58851;42.984;20.336;2023-07-16T03:09:08;537.60;128.00
55331;DHT22;58851;42.984;20.336;2023-07-16T03:11:34;512.90;128.00
55331;DHT22;58851;42.984;20.336;2023-07-16T03:13:59;512.80;128.00
55331;DHT22;58851;42.984;20.336;2023-07-16T03:16:25;512.80;128.00
55331;DHT22;58851;42.984;20.336;2023-07-16T03:18:53;537.60;128.00
55331;DHT22;58851;42.984;20.336;2023-07-16T03:21:19;512.90;128.00
55331;DHT22;58851;42.984;20.336;2023-07-16T03:23:45;537.60;128.00
55331;DHT22;58851;42.984;20.336;2023-07-16T03:26:11;512.90;128.00
55331;DHT22;58851;42.984;20.336;2023-07-16T03:28:36;512.90;128.00
55331;DHT22;58851;42.984;20.336;2023-07-16T03:31:02;512.90;128.00
55331;DHT22;58851;42.984;20.336;2023-07-16T03:33:28;512.80;128.00
55331;DHT22;58851;42.984;20.336;2023-07-16T03:35:54;512.70;128.00
55331;DHT22;58851;42.984;20.336;2023-07-16T03:38:20;512.50;128.00
55331;DHT22;58851;42.984;20.336;2023-07-16T03:40:47;512.50;128.00
55331;DHT22;58851;42.984;20.336;2023-07-16T03:43:14;512.50;128.00
55331;DHT22;58851;42.984;20.336;2023-07-16T03:45:40;512.70;128.00
55331;DHT22;58851;42.984;20.336;2023-07-16T03:48:06;512.80;128.00
55331;DHT22;58851;42.984;20.336;2023-07-16T03:50:32;512.60;128.00
55331;DHT22;58851;42.984;20.336;2023-07-16T03:52:58;512.70;128.00
55331;DHT22;58851;42.984;20.336;2023-07-16T03:55:24;512.70;128.00
55331;DHT22;58851;42.984;20.336;2023-07-16T03:57:50;512.70;128.00
55331;DHT22;58851;42.984;20.336;2023-07-16T04:00:16;512.80;128.00
55331;DHT22;58851;42.984;20.336;2023-07-16T04:02:42;512.70;128.00
55331;DHT22;58851;42.984;20.336;2023-07-16T04:05:08;512.80;128.00
55331;DHT22;58851;42.984;20.336;2023-07-16T04:07:34;512.80;128.00
55331;DHT22;58851;42.984;20.336;2023-07-16T04:10:00;537.60;128.00
55331;DHT22;58851;42.984;20.336;2023-07-16T04:12:25;537.60;128.00
55331;DHT22;58851;42.984;20.336;2023-07-16T04:14:58;537.60;128.00
55331;DHT22;58851;42.984;20.336;2023-07-16T04:17:24;537.60;128.00
55331;DHT22;58851;42.984;20.336;2023-07-16T04:19:50;537.70;128.00
55331;DHT22;58851;42.984;20.336;2023-07-16T04:22:16;537.70;128.00
55331;DHT22;58851;42.984;20.336;2023-07-16T04:24:42;537.90;128.00
55331;DHT22;58851;42.984;20.336;2023-07-16T04:27:08;538.00;128.00
55331;DHT22;58851;42.984;20.336;2023-07-16T04:29:34;538.10;128.00
55331;DHT22;58851;42.984;20.336;2023-07-16T04:31:59;538.00;128.00
55331;DHT22;58851;42.984;20.336;2023-07-16T04:34:25;538.10;128.00
55331;DHT22;58851;42.984;20.336;2023-07-16T04:36:51;538.10;128.00
55331;DHT22;58851;42.984;20.336;2023-07-16T04:39:17;538.20;128.00
55331;DHT22;58851;42.984;20.336;2023-07-16T04:41:43;538.20;128.00
55331;DHT22;58851;42.984;20.336;2023-07-16T04:44:08;538.30;128.00
55331;DHT22;58851;42.984;20.336;2023-07-16T04:46:34;538.40;128.00
55331;DHT22;58851;42.984;20.336;2023-07-16T04:49:01;538.50;128.00
55331;DHT22;58851;42.984;20.336;2023-07-16T04:51:27;538.30;128.00
55331;DHT22;58851;42.984;20.336;2023-07-16T04:53:53;538.20;128.00
55331;DHT22;58851;42.984;20.336;2023-07-16T04:56:18;538.40;128.00
55331;DHT22;58851;42.984;20.336;2023-07-16T04:58:44;563.20;128.00
55331;DHT22;58851;42.984;20.336;2023-07-16T05:01:10;563.40;128.00
55331;DHT22;58851;42.984;20.336;2023-07-16T05:03:36;563.50;128.00
55331;DHT22;58851;42.984;20.336;2023-07-16T05:06:02;563.50;128.00
55331;DHT22;58851;42.984;20.336;2023-07-16T05:08:29;563.50;128.00
55331;DHT22;58851;42.984;20.336;2023-07-16T05:10:54;563.60;128.00
55331;DHT22;58851;42.984;20.336;2023-07-16T05:13:20;563.60;128.00
55331;DHT22;58851;42.984;20.336;2023-07-16T05:15:46;563.60;128.00
55331;DHT22;58851;42.984;20.336;2023-07-16T05:18:12;563.50;128.00
55331;DHT22;58851;42.984;20.336;2023-07-16T05:20:38;563.50;128.00
55331;DHT22;58851;42.984;20.336;2023-07-16T05:23:04;563.60;128.00
55331;DHT22;58851;42.984;20.336;2023-07-16T05:25:30;563.70;128.00
55331;DHT22;58851;42.984;20.336;2023-07-16T05:27:56;563.80;128.00
55331;DHT22;58851;42.984;20.336;2023-07-16T05:30:22;563.90;128.00
55331;DHT22;58851;42.984;20.336;2023-07-16T05:32:48;563.90;128.00
55331;DHT22;58851;42.984;20.336;2023-07-16T05:35:13;563.80;128.00
55331;DHT22;58851;42.984;20.336;2023-07-16T05:37:39;563.90;128.00
55331;DHT22;58851;42.984;20.336;2023-07-16T05:40:05;563.80;128.00
55331;DHT22;58851;42.984;20.336;2023-07-16T05:42:34;563.90;128.00
55331;DHT22;58851;42.984;20.336;2023-07-16T05:45:00;564.10;128.00
55331;DHT22;58851;42.984;20.336;2023-07-16T05:47:25;564.10;128.00
55331;DHT22;58851;42.984;20.336;2023-07-16T05:49:51;588.80;128.00
55331;DHT22;58851;42.984;20.336;2023-07-16T05:52:17;588.80;128.00
55331;DHT22;58851;42.984;20.336;2023-07-16T05:54:43;588.90;128.00
55331;DHT22;58851;42.984;20.336;2023-07-16T05:57:10;589.00;128.00
55331;DHT22;58851;42.984;20.336;2023-07-16T05:59:36;589.00;128.00
55331;DHT22;58851;42.984;20.336;2023-07-16T06:02:03;589.00;128.00
55331;DHT22;58851;42.984;20.336;2023-07-16T06:04:30;589.00;128.00
55331;DHT22;58851;42.984;20.336;2023-07-16T06:06:56;589.10;128.00
55331;DHT22;58851;42.984;20.336;2023-07-16T06:09:23;589.10;128.00
55331;DHT22;58851;42.984;20.336;2023-07-16T06:11:49;589.00;128.00
55331;DHT22;58851;42.984;20.336;2023-07-16T06:14:15;588.80;128.00
55331;DHT22;58851;42.984;20.336;2023-07-16T06:16:41;588.80;128.00
55331;DHT22;58851;42.984;20.336;2023-07-16T06:19:07;588.80;128.00
55331;DHT22;58851;42.984;20.336;2023-07-16T06:21:33;588.90;128.00
55331;DHT22;58851;42.984;20.336;2023-07-16T06:23:58;588.90;128.00
55331;DHT22;58851;42.984;20.336;2023-07-16T06:26:24;589.00;128.00
55331;DHT22;58851;42.984;20.336;2023-07-16T06:28:50;589.10;128.00
55331;DHT22;58851;42.984;20.336;2023-07-16T06:31:17;589.20;128.00
55331;DHT22;58851;42.984;20.336;2023-07-16T06:33:43;589.20;128.00
55331;DHT22;58851;42.984;20.336;2023-07-16T06:36:09;589.20;128.00
55331;DHT22;58851;42.984;20.336;2023-07-16T06:38:34;589.20;128.00
55331;DHT22;58851;42.984;20.336;2023-07-16T06:41:00;589.20;128.00
55331;DHT22;58851;42.984;20.336;2023-07-16T07:12:47;589.00;128.00
55331;DHT22;58851;42.984;20.336;2023-07-16T07:15:13;614.60;128.00
55331;DHT22;58851;42.984;20.336;2023-07-16T07:17:39;614.70;128.00
55331;DHT22;58851;42.984;20.336;2023-07-16T07:20:06;614.80;128.00
55331;DHT22;58851;42.984;20.336;2023-07-16T07:22:32;614.80;128.00
55331;DHT22;58851;42.984;20.336;2023-07-16T07:24:58;614.90;128.00
55331;DHT22;58851;42.984;20.336;2023-07-16T07:27:24;615.00;128.00
55331;DHT22;58851;42.984;20.336;2023-07-16T07:29:49;615.10;128.00
55331;DHT22;58851;42.984;20.336;2023-07-16T07:32:21;640.00;128.00
55331;DHT22;58851;42.984;20.336;2023-07-16T07:34:47;640.10;128.00
55331;DHT22;58851;42.984;20.336;2023-07-16T07:37:12;640.30;128.00
55331;DHT22;58851;42.984;20.336;2023-07-16T07:39:38;640.30;128.00
55331;DHT22;58851;42.984;20.336;2023-07-16T07:42:04;640.50;128.00
55331;DHT22;58851;42.984;20.336;2023-07-16T07:44:30;640.70;128.00
55331;DHT22;58851;42.984;20.336;2023-07-16T07:46:56;640.80;128.00
55331;DHT22;58851;42.984;20.336;2023-07-16T07:49:22;640.90;614.40
55331;DHT22;58851;42.984;20.336;2023-07-16T07:51:48;665.60;153.60
55331;DHT22;58851;42.984;20.336;2023-07-16T07:54:15;665.80;435.20
55331;DHT22;58851;42.984;20.336;2023-07-16T07:56:42;665.80;153.60
55331;DHT22;58851;42.984;20.336;2023-07-16T07:59:08;665.90;153.60
55331;DHT22;58851;42.984;20.336;2023-07-16T08:01:34;665.90;153.60
55331;DHT22;58851;42.984;20.336;2023-07-16T08:03:59;665.90;153.60
55331;DHT22;58851;42.984;20.336;2023-07-16T08:06:25;666.10;153.60
55331;DHT22;58851;42.984;20.336;2023-07-16T08:08:52;666.20;153.60
55331;DHT22;58851;42.984;20.336;2023-07-16T08:11:17;666.30;153.60
55331;DHT22;58851;42.984;20.336;2023-07-16T08:13:43;666.30;153.60
55331;DHT22;58851;42.984;20.336;2023-07-16T08:16:09;666.50;153.60
55331;DHT22;58851;42.984;20.336;2023-07-16T08:18:35;691.30;153.60
55331;DHT22;58851;42.984;20.336;2023-07-16T08:21:01;691.50;153.60
55331;DHT22;58851;42.984;20.336;2023-07-16T08:23:27;691.60;460.80
55331;DHT22;58851;42.984;20.336;2023-07-16T08:25:52;691.70;153.60
55331;DHT22;58851;42.984;20.336;2023-07-16T08:28:18;691.70;153.60
55331;DHT22;58851;42.984;20.336;2023-07-16T08:30:46;691.80;153.60
55331;DHT22;58851;42.984;20.336;2023-07-16T08:33:13;692.00;153.60
55331;DHT22;58851;42.984;20.336;2023-07-16T08:35:40;716.80;179.20
55331;DHT22;58851;42.984;20.336;2023-07-16T08:38:06;717.00;179.20
55331;DHT22;58851;42.984;20.336;2023-07-16T08:40:36;717.10;179.20
55331;DHT22;58851;42.984;20.336;2023-07-16T08:43:03;717.30;179.20
55331;DHT22;58851;42.984;20.336;2023-07-16T08:45:31;717.40;179.20
55331;DHT22;58851;42.984;20.336;2023-07-16T08:48:02;717.50;179.20
55331;DHT22;58851;42.984;20.336;2023-07-16T08:50:28;717.70;179.20
55331;DHT22;58851;42.984;20.336;2023-07-16T08:52:54;742.40;204.80
55331;DHT22;58851;42.984;20.336;2023-07-16T08:55:21;742.50;204.80
55331;DHT22;58851;42.984;20.336;2023-07-16T08:57:48;742.60;204.80
55331;DHT22;58851;42.984;20.336;2023-07-16T09:00:15;742.70;204.80
55331;DHT22;58851;42.984;20.336;2023-07-16T09:02:41;742.70;204.80
55331;DHT22;58851;42.984;20.336;2023-07-16T09:05:09;742.90;204.80
55331;DHT22;58851;42.984;20.336;2023-07-16T09:07:35;743.00;204.80
55331;DHT22;58851;42.984;20.336;2023-07-16T09:10:03;743.20;204.80
55331;DHT22;58851;42.984;20.336;2023-07-16T09:12:29;743.30;204.80
55331;DHT22;58851;42.984;20.336;2023-07-16T09:14:55;768.00;204.80
55331;DHT22;58851;42.984;20.336;2023-07-16T09:17:22;768.00;204.80
55331;DHT22;58851;42.984;20.336;2023-07-16T09:19:52;768.00;563.20
55331;DHT22;58851;42.984;20.336;2023-07-16T09:22:18;768.10;793.60
55331;DHT22;58851;42.984;20.336;2023-07-16T09:24:48;768.40;332.80
55331;DHT22;58851;42.984;20.336;2023-07-16T09:27:14;768.50;204.80
55331;DHT22;58851;42.984;20.336;2023-07-16T09:29:40;768.50;204.80
55331;DHT22;58851;42.984;20.336;2023-07-16T09:32:06;768.30;204.80
55331;DHT22;58851;42.984;20.336;2023-07-16T09:34:32;768.20;204.80
55331;DHT22;58851;42.984;20.336;2023-07-16T09:36:59;768.40;204.80
55331;DHT22;58851;42.984;20.336;2023-07-16T09:39:26;768.50;204.80
55331;DHT22;58851;42.984;20.336;2023-07-16T09:41:53;768.70;204.80
55331;DHT22;58851;42.984;20.336;2023-07-16T09:44:19;768.70;204.80
55331;DHT22;58851;42.984;20.336;2023-07-16T09:46:46;768.70;204.80
55331;DHT22;58851;42.984;20.336;2023-07-16T09:49:14;768.70;204.80
55331;DHT22;58851;42.984;20.336;2023-07-16T09:51:40;768.70;204.80
55331;DHT22;58851;42.984;20.336;2023-07-16T09:54:07;768.80;204.80
55331;DHT22;58851;42.984;20.336;2023-07-16T09:56:40;768.90;204.80
55331;DHT22;58851;42.984;20.336;2023-07-16T09:59:14;768.90;204.80
55331;DHT22;58851;42.984;20.336;2023-07-16T10:01:41;768.80;204.80
55331;DHT22;58851;42.984;20.336;2023-07-16T10:04:15;793.60;230.40
55331;DHT22;58851;42.984;20.336;2023-07-16T10:06:55;793.60;230.40
55331;DHT22;58851;42.984;20.336;2023-07-16T10:10:01;793.60;230.40
55331;DHT22;58851;42.984;20.336;2023-07-16T10:12:27;793.70;230.40
55331;DHT22;58851;42.984;20.336;2023-07-16T10:14:59;793.90;230.40
55331;DHT22;58851;42.984;20.336;2023-07-16T10:17:31;794.10;230.40
55331;DHT22;58851;42.984;20.336;2023-07-16T10:20:02;794.10;230.40
55331;DHT22;58851;42.984;20.336;2023-07-16T10:22:35;794.20;230.40
55331;DHT22;58851;42.984;20.336;2023-07-16T10:25:10;794.30;230.40
55331;DHT22;58851;42.984;20.336;2023-07-16T10:27:37;794.10;230.40
55331;DHT22;58851;42.984;20.336;2023-07-16T10:30:05;794.20;230.40
55331;DHT22;58851;42.984;20.336;2023-07-16T10:32:32;794.20;230.40
55331;DHT22;58851;42.984;20.336;2023-07-16T10:34:59;794.20;230.40
55331;DHT22;58851;42.984;20.336;2023-07-16T10:37:25;794.40;230.40
55331;DHT22;58851;42.984;20.336;2023-07-16T10:39:53;794.50;230.40
55331;DHT22;58851;42.984;20.336;2023-07-16T10:42:21;819.20;230.40
55331;DHT22;58851;42.984;20.336;2023-07-16T10:44:59;819.20;230.40
55331;DHT22;58851;42.984;20.336;2023-07-16T10:47:33;794.40;230.40
55331;DHT22;58851;42.984;20.336;2023-07-16T10:50:00;794.50;230.40
55331;DHT22;58851;42.984;20.336;2023-07-16T10:52:28;819.20;230.40
55331;DHT22;58851;42.984;20.336;2023-07-16T10:54:57;819.50;230.40
55331;DHT22;58851;42.984;20.336;2023-07-16T10:57:27;819.60;230.40
55331;DHT22;58851;42.984;20.336;2023-07-16T10:59:56;819.70;230.40
55331;DHT22;58851;42.984;20.336;2023-07-16T11:02:23;819.90;230.40
55331;DHT22;58851;42.984;20.336;2023-07-16T11:04:51;819.90;230.40
55331;DHT22;58851;42.984;20.336;2023-07-16T11:07:21;820.10;409.60
55331;DHT22;58851;42.984;20.336;2023-07-16T11:09:49;844.80;563.20
55331;DHT22;58851;42.984;20.336;2023-07-16T11:12:17;844.90;256.00
55331;DHT22;58851;42.984;20.336;2023-07-16T11:14:47;845.00;256.00
55331;DHT22;58851;42.984;20.336;2023-07-16T11:17:23;845.20;256.00
55331;DHT22;58851;42.984;20.336;2023-07-16T11:19:52;845.20;256.00
55331;DHT22;58851;42.984;20.336;2023-07-16T11:22:18;845.40;256.00
55331;DHT22;58851;42.984;20.336;2023-07-16T11:24:49;845.30;256.00
55331;DHT22;58851;42.984;20.336;2023-07-16T11:27:17;845.20;256.00
55331;DHT22;58851;42.984;20.336;2023-07-16T11:29:56;845.10;256.00
55331;DHT22;58851;42.984;20.336;2023-07-16T11:32:45;845.20;256.00
55331;DHT22;58851;42.984;20.336;2023-07-16T11:35:17;845.40;256.00
55331;DHT22;58851;42.984;20.336;2023-07-16T11:37:44;845.60;256.00
55331;DHT22;58851;42.984;20.336;2023-07-16T11:40:15;845.70;256.00
55331;DHT22;58851;42.984;20.336;2023-07-16T11:42:43;845.70;256.00
55331;DHT22;58851;42.984;20.336;2023-07-16T11:45:22;870.50;256.00
55331;DHT22;58851;42.984;20.336;2023-07-16T11:47:50;870.60;256.00
55331;DHT22;58851;42.984;20.336;2023-07-16T11:50:17;870.70;256.00
55331;DHT22;58851;42.984;20.336;2023-07-16T11:52:43;870.80;256.00
55331;DHT22;58851;42.984;20.336;2023-07-16T11:55:17;870.70;256.00
55331;DHT22;58851;42.984;20.336;2023-07-16T11:57:42;870.90;256.00
55331;DHT22;58851;42.984;20.336;2023-07-16T12:00:08;871.10;256.00
55331;DHT22;58851;42.984;20.336;2023-07-16T12:02:34;871.20;256.00
55331;DHT22;58851;42.984;20.336;2023-07-16T12:05:00;896.00;256.00
55331;DHT22;58851;42.984;20.336;2023-07-16T12:07:35;896.20;256.00
55331;DHT22;58851;42.984;20.336;2023-07-16T12:10:08;896.40;256.00
55331;DHT22;58851;42.984;20.336;2023-07-16T12:12:34;896.50;256.00
55331;DHT22;58851;42.984;20.336;2023-07-16T12:15:05;896.70;256.00
55331;DHT22;58851;42.984;20.336;2023-07-16T12:17:31;896.70;256.00
55331;DHT22;58851;42.984;20.336;2023-07-16T12:19:57;921.60;281.60
55331;DHT22;58851;42.984;20.336;2023-07-16T12:22:23;921.60;281.60
55331;DHT22;58851;42.984;20.336;2023-07-16T12:24:50;921.90;281.60
55331;DHT22;58851;42.984;20.336;2023-07-16T12:27:16;922.00;281.60
55331;DHT22;58851;42.984;20.336;2023-07-16T12:29:42;922.20;281.60
55331;DHT22;58851;42.984;20.336;2023-07-16T12:32:09;922.20;281.60
55331;DHT22;58851;42.984;20.336;2023-07-16T12:34:35;922.30;281.60
55331;DHT22;58851;42.984;20.336;2023-07-16T12:37:04;922.50;281.60
55331;DHT22;58851;42.984;20.336;2023-07-16T12:39:33;947.20;281.60
55331;DHT22;58851;42.984;20.336;2023-07-16T12:41:59;947.40;281.60
55331;DHT22;58851;42.984;20.336;2023-07-16T12:44:25;947.50;281.60
55331;DHT22;58851;42.984;20.336;2023-07-16T12:46:51;947.80;281.60
55331;DHT22;58851;42.984;20.336;2023-07-16T12:49:17;948.10;281.60
55331;DHT22;58851;42.984;20.336;2023-07-16T12:51:43;948.10;281.60
55331;DHT22;58851;42.984;20.336;2023-07-16T12:54:09;973.00;307.20
55331;DHT22;58851;42.984;20.336;2023-07-16T12:56:41;973.30;307.20
55331;DHT22;58851;42.984;20.336;2023-07-16T12:59:07;973.50;307.20
55331;DHT22;58851;42.984;20.336;2023-07-16T13:01:33;973.60;307.20
55331;DHT22;58851;42.984;20.336;2023-07-16T13:03:59;998.70;332.80
55331;DHT22;58851;42.984;20.336;2023-07-16T13:06:24;998.90;332.80
55331;DHT22;58851;42.984;20.336;2023-07-16T13:08:50;1024.00;332.80
55331;DHT22;58851;42.984;20.336;2023-07-16T13:11:16;1024.50;332.80
55331;DHT22;58851;42.984;20.336;2023-07-16T13:13:42;1024.80;332.80
55331;DHT22;58851;42.984;20.336;2023-07-16T13:16:09;1024.80;332.80
55331;DHT22;58851;42.984;20.336;2023-07-16T13:18:35;1024.90;332.80
55331;DHT22;58851;42.984;20.336;2023-07-16T13:21:01;1049.80;358.40
55331;DHT22;58851;42.984;20.336;2023-07-16T13:23:27;1049.90;358.40
55331;DHT22;58851;42.984;20.336;2023-07-16T13:25:53;1050.10;358.40
55331;DHT22;58851;42.984;20.336;2023-07-16T13:28:19;1050.50;358.40
55331;DHT22;58851;42.984;20.336;2023-07-16T13:30:45;1075.30;358.40
55331;DHT22;58851;42.984;20.336;2023-07-16T13:33:11;1075.30;358.40
55331;DHT22;58851;42.984;20.336;2023-07-16T13:35:37;1075.50;358.40
55331;DHT22;58851;42.984;20.336;2023-07-16T13:38:06;1076.10;358.40
55331;DHT22;58851;42.984;20.336;2023-07-16T13:40:32;1101.30;384.00
55331;DHT22;58851;42.984;20.336;2023-07-16T13:42:58;1101.70;384.00
55331;DHT22;58851;42.984;20.336;2023-07-16T13:45:24;1126.70;409.60
55331;DHT22;58851;42.984;20.336;2023-07-16T13:47:50;1101.70;384.00
55331;DHT22;58851;42.984;20.336;2023-07-16T13:50:19;1127.00;409.60
55331;DHT22;58851;42.984;20.336;2023-07-16T13:52:46;1152.00;409.60
55331;DHT22;58851;42.984;20.336;2023-07-16T13:55:11;1152.60;409.60
55331;DHT22;58851;42.984;20.336;2023-07-16T13:57:37;1152.80;409.60
55331;DHT22;58851;42.984;20.336;2023-07-16T14:00:03;1177.90;409.60
55331;DHT22;58851;42.984;20.336;2023-07-16T14:02:30;1178.30;409.60
55331;DHT22;58851;42.984;20.336;2023-07-16T14:04:56;1203.20;435.20
55331;DHT22;58851;42.984;20.336;2023-07-16T14:07:22;1178.30;409.60
55331;DHT22;58851;42.984;20.336;2023-07-16T14:09:49;1203.50;435.20
55331;DHT22;58851;42.984;20.336;2023-07-16T14:12:14;1203.20;435.20
55331;DHT22;58851;42.984;20.336;2023-07-16T14:14:40;1203.30;435.20
55331;DHT22;58851;42.984;20.336;2023-07-16T14:17:06;1203.70;435.20
55331;DHT22;58851;42.984;20.336;2023-07-16T14:19:32;1203.70;435.20
55331;DHT22;58851;42.984;20.336;2023-07-16T14:21:58;1203.70;435.20
55331;DHT22;58851;42.984;20.336;2023-07-16T14:24:23;1204.00;435.20
55331;DHT22;58851;42.984;20.336;2023-07-16T14:26:49;1229.00;460.80
55331;DHT22;58851;42.984;20.336;2023-07-16T14:29:15;1254.40;486.40
55331;DHT22;58851;42.984;20.336;2023-07-16T14:31:41;1254.60;486.40
55331;DHT22;58851;42.984;20.336;2023-07-16T14:34:07;1255.00;486.40
55331;DHT22;58851;42.984;20.336;2023-07-16T14:36:32;1280.10;486.40
55331;DHT22;58851;42.984;20.336;2023-07-16T14:38:58;1280.30;486.40
55331;DHT22;58851;42.984;20.336;2023-07-16T14:41:24;1280.50;486.40
55331;DHT22;58851;42.984;20.336;2023-07-16T14:43:50;1305.60;486.40
55331;DHT22;58851;42.984;20.336;2023-07-16T14:46:16;1305.80;486.40
55331;DHT22;58851;42.984;20.336;2023-07-16T14:48:43;1280.70;486.40
55331;DHT22;58851;42.984;20.336;2023-07-16T14:51:12;1305.90;486.40
55331;DHT22;58851;42.984;20.336;2023-07-16T14:53:38;1306.20;486.40
55331;DHT22;58851;42.984;20.336;2023-07-16T14:56:04;1331.20;512.00
55331;DHT22;58851;42.984;20.336;2023-07-16T14:58:32;1306.20;486.40
55331;DHT22;58851;42.984;20.336;2023-07-16T15:01:00;1331.30;512.00
55331;DHT22;58851;42.984;20.336;2023-07-16T15:03:33;1331.80;512.00
55331;DHT22;58851;42.984;20.336;2023-07-16T15:06:00;1331.80;512.00
55331;DHT22;58851;42.984;20.336;2023-07-16T15:08:25;1331.70;512.00
55331;DHT22;58851;42.984;20.336;2023-07-16T15:10:52;1331.90;512.00
55331;DHT22;58851;42.984;20.336;2023-07-16T15:13:24;1356.80;537.60
55331;DHT22;58851;42.984;20.336;2023-07-16T15:15:54;1357.30;537.60
55331;DHT22;58851;42.984;20.336;2023-07-16T15:18:22;1357.60;537.60
55331;DHT22;58851;42.984;20.336;2023-07-16T15:20:48;1357.40;537.60